Terminal Aerodrome Forecast
Issued by NWS Sterling, VA

Current Version | Previous Version | Graphics & Text | Print | Product List | Glossary On
Versions: 1 2 3 4 5 6 7 8 9 10 11 12 13 14 15 16 17 18 19 20 21 22
028
FTUS41 KLWX 212033 AAA
TAFDCA
TAF AMD
KDCA 212033Z 2121/2218 17010KT P6SM BKN200
     FM212300 17005KT P6SM BKN090 OVC200
     FM221600 20009KT P6SM SCT050 BKN130=

USA.gov is the U.S. government's official web portal to all federal, state and local government web resources and services.